createdAt,value
2023-05-02T00:02:27.133Z,6.90
2023-05-02T00:04:55.930Z,6.40
2023-05-02T00:07:24.862Z,6.30
2023-05-02T00:09:53.890Z,6.90
2023-05-02T00:12:23.200Z,7.33
2023-05-02T00:14:51.941Z,6.80
2023-05-02T00:17:22.408Z,6.73
2023-05-02T00:19:51.125Z,6.27
2023-05-02T00:22:19.820Z,6.70
2023-05-02T00:24:48.483Z,7.20
2023-05-02T00:27:17.370Z,7.07
2023-05-02T00:29:47.959Z,6.87
2023-05-02T00:32:17.254Z,6.27
2023-05-02T00:34:47.301Z,7.20
2023-05-02T00:37:16.089Z,6.33
2023-05-02T00:39:45.029Z,6.77
2023-05-02T00:42:13.709Z,6.57
2023-05-02T00:44:42.823Z,6.93
2023-05-02T00:47:11.850Z,6.73
2023-05-02T00:49:40.604Z,6.33
2023-05-02T00:52:10.928Z,6.77
2023-05-02T00:54:40.501Z,6.37
2023-05-02T00:57:09.671Z,6.57
2023-05-02T00:59:39.199Z,6.53
2023-05-02T01:02:32.033Z,6.87
2023-05-02T01:05:12.623Z,6.73
2023-05-02T01:08:10.020Z,7.00
2023-05-02T01:10:51.251Z,6.10
2023-05-02T01:13:25.933Z,6.23
2023-05-02T01:15:59.268Z,6.80
2023-05-02T01:18:33.814Z,6.47
2023-05-02T01:21:08.326Z,6.30
2023-05-02T01:23:55.260Z,6.60
2023-05-02T01:26:36.002Z,6.07
2023-05-02T01:29:08.841Z,6.27
2023-05-02T01:31:42.183Z,5.93
2023-05-02T01:34:13.409Z,6.53
2023-05-02T01:36:48.463Z,6.33
2023-05-02T01:39:22.770Z,6.17
2023-05-02T01:41:54.699Z,6.50
2023-05-02T01:44:27.002Z,6.50
2023-05-02T01:46:59.137Z,6.27
2023-05-02T01:49:32.478Z,6.10
2023-05-02T01:52:11.609Z,6.07
2023-05-02T01:54:42.396Z,6.57
2023-05-02T01:57:13.788Z,6.50
2023-05-02T01:59:48.567Z,6.17
2023-05-02T02:02:18.951Z,6.57
2023-05-02T02:04:51.016Z,6.63
2023-05-02T02:07:19.917Z,6.57
2023-05-02T02:09:48.894Z,6.03
2023-05-02T02:12:25.803Z,6.20
2023-05-02T02:15:04.328Z,7.00
2023-05-02T02:17:41.696Z,6.30
2023-05-02T02:20:13.523Z,6.20
2023-05-02T02:22:45.475Z,6.23
2023-05-02T02:25:17.517Z,6.47
2023-05-02T02:27:46.316Z,6.30
2023-05-02T02:30:17.005Z,6.30
2023-05-02T02:32:45.676Z,6.13
2023-05-02T02:35:14.526Z,6.20
2023-05-02T02:37:49.964Z,6.40
2023-05-02T02:40:32.728Z,6.07
2023-05-02T02:43:11.106Z,5.77
2023-05-02T02:45:57.152Z,6.10
2023-05-02T02:48:35.993Z,6.00
2023-05-02T02:51:15.943Z,6.00
2023-05-02T02:53:59.554Z,6.23
2023-05-02T02:56:37.794Z,6.50
2023-05-02T02:59:15.759Z,5.93
2023-05-02T03:01:58.085Z,9.57
2023-05-02T03:04:31.115Z,6.73
2023-05-02T03:07:01.290Z,6.40
2023-05-02T03:09:42.121Z,5.60
2023-05-02T03:12:14.918Z,5.87
2023-05-02T03:14:45.351Z,6.17
2023-05-02T03:17:15.486Z,6.53
2023-05-02T03:19:44.738Z,5.97
2023-05-02T03:22:14.410Z,6.07
2023-05-02T03:24:43.165Z,6.00
2023-05-02T03:27:13.882Z,6.27
2023-05-02T03:29:44.555Z,5.93
2023-05-02T03:32:16.821Z,6.20
2023-05-02T03:34:46.653Z,6.27
2023-05-02T03:37:16.001Z,6.50
2023-05-02T03:39:47.789Z,5.67
2023-05-02T03:42:17.136Z,6.50
2023-05-02T03:44:46.008Z,6.53
2023-05-02T03:47:16.045Z,6.10
2023-05-02T03:49:46.072Z,6.10
2023-05-02T03:52:16.357Z,5.90
2023-05-02T03:54:46.887Z,6.50
2023-05-02T03:57:16.164Z,6.20
2023-05-02T03:59:45.853Z,6.30
2023-05-02T04:02:25.406Z,6.10
2023-05-02T04:04:54.359Z,6.37
2023-05-02T04:07:25.973Z,6.33
2023-05-02T04:10:04.524Z,6.17
2023-05-02T04:12:37.884Z,6.63
2023-05-02T04:15:08.670Z,5.63
2023-05-02T04:17:38.859Z,5.90
2023-05-02T04:20:10.818Z,7.83
2023-05-02T04:22:44.308Z,6.10
2023-05-02T04:25:14.133Z,6.10
2023-05-02T04:27:44.583Z,5.90
2023-05-02T04:30:16.944Z,6.00
2023-05-02T04:32:54.049Z,5.87
2023-05-02T04:35:23.393Z,5.90
2023-05-02T04:37:52.131Z,6.47
2023-05-02T04:40:22.048Z,6.10
2023-05-02T04:42:56.530Z,6.30
2023-05-02T04:45:29.995Z,6.67
2023-05-02T04:48:00.351Z,6.40
2023-05-02T04:50:29.657Z,6.33
2023-05-02T04:52:58.325Z,6.00
2023-05-02T04:55:28.364Z,6.03
2023-05-02T04:57:57.617Z,5.90
2023-05-02T05:00:27.777Z,6.03
2023-05-02T05:02:57.961Z,6.27
2023-05-02T05:05:29.270Z,5.77
2023-05-02T05:07:58.239Z,6.17
2023-05-02T05:10:30.089Z,6.50
2023-05-02T05:12:59.014Z,6.30
2023-05-02T05:15:28.111Z,6.60
2023-05-02T05:18:00.317Z,6.60
2023-05-02T05:20:30.990Z,6.50
2023-05-02T05:23:02.567Z,5.80
2023-05-02T05:25:32.510Z,5.67
2023-05-02T05:28:01.825Z,5.93
2023-05-02T05:30:32.287Z,5.77
2023-05-02T05:33:02.772Z,6.10
2023-05-02T05:35:33.405Z,5.67
2023-05-02T05:38:04.578Z,5.37
2023-05-02T05:40:36.612Z,5.33
2023-05-02T05:43:05.941Z,5.83
2023-05-02T05:45:38.416Z,5.70
2023-05-02T05:48:08.528Z,5.20
2023-05-02T05:50:44.510Z,5.73
2023-05-02T05:53:13.903Z,5.57
2023-05-02T05:55:44.062Z,4.70
2023-05-02T05:58:13.257Z,4.87
2023-05-02T06:00:43.544Z,5.20
2023-05-02T06:03:12.453Z,5.27
2023-05-02T06:05:43.599Z,5.10
2023-05-02T06:08:12.423Z,5.00
2023-05-02T06:10:41.742Z,5.53
2023-05-02T06:13:11.720Z,5.40
2023-05-02T06:15:50.763Z,5.47
2023-05-02T06:18:25.119Z,5.20
2023-05-02T06:20:58.252Z,5.60
2023-05-02T06:23:27.371Z,5.13
2023-05-02T06:25:56.059Z,4.87
2023-05-02T06:28:24.797Z,5.07
2023-05-02T06:31:00.281Z,5.47
2023-05-02T06:33:32.708Z,5.63
2023-05-02T06:36:03.114Z,5.30
2023-05-02T06:38:32.570Z,5.10
2023-05-02T06:41:01.254Z,5.30
2023-05-02T06:43:29.886Z,4.77
2023-05-02T06:45:58.864Z,4.90
2023-05-02T06:48:27.586Z,4.90
2023-05-02T06:50:56.388Z,4.73
2023-05-02T06:53:26.957Z,4.87
2023-05-02T06:55:55.971Z,4.80
2023-05-02T06:58:25.102Z,4.17
2023-05-02T07:00:53.808Z,4.40
2023-05-02T07:03:22.545Z,4.37
2023-05-02T07:05:51.593Z,4.50
2023-05-02T07:08:22.548Z,4.73
2023-05-02T07:10:53.090Z,5.00
2023-05-02T07:13:21.764Z,5.13
2023-05-02T07:15:50.517Z,4.63
2023-05-02T07:18:19.504Z,5.10
2023-05-02T07:20:48.320Z,4.93
2023-05-02T07:23:17.052Z,5.03
2023-05-02T07:25:45.788Z,5.20
2023-05-02T07:28:15.975Z,5.33
2023-05-02T07:30:44.599Z,5.30
2023-05-02T07:33:13.394Z,5.30
2023-05-02T07:35:42.257Z,5.03
2023-05-02T07:38:11.051Z,4.87
2023-05-02T07:40:39.833Z,4.70
2023-05-02T07:43:09.945Z,4.87
2023-05-02T07:45:41.441Z,4.20
2023-05-02T07:48:10.312Z,4.37
2023-05-02T07:50:39.116Z,4.90
2023-05-02T07:53:07.922Z,4.50
2023-05-02T07:55:36.646Z,4.77
2023-05-02T07:58:05.553Z,5.00
2023-05-02T08:00:34.687Z,4.33
2023-05-02T08:03:06.180Z,6.20
2023-05-02T08:05:35.195Z,5.30
2023-05-02T08:08:04.215Z,4.80
2023-05-02T08:10:33.018Z,4.97
2023-05-02T08:13:01.887Z,5.30
2023-05-02T08:15:32.054Z,5.53
2023-05-02T08:18:01.251Z,5.37
2023-05-02T08:20:31.568Z,5.10
2023-05-02T08:23:00.649Z,5.10
2023-05-02T08:25:30.542Z,4.67
2023-05-02T08:27:59.185Z,4.80
2023-05-02T08:30:28.203Z,5.20
2023-05-02T08:32:57.146Z,5.17
2023-05-02T08:35:25.967Z,4.90
2023-05-02T08:37:56.120Z,4.63
2023-05-02T08:40:38.271Z,4.27
2023-05-02T08:43:14.417Z,4.47
2023-05-02T08:45:45.970Z,4.13
2023-05-02T08:48:16.951Z,4.60
2023-05-02T08:50:48.523Z,4.20
2023-05-02T08:53:20.590Z,4.37
2023-05-02T08:55:51.092Z,4.83
2023-05-02T08:58:19.756Z,4.73
2023-05-02T09:00:52.241Z,5.27
2023-05-02T09:03:31.779Z,4.83
2023-05-02T09:06:08.841Z,4.90
2023-05-02T09:08:39.427Z,4.37
2023-05-02T09:11:10.513Z,4.70
2023-05-02T09:13:42.102Z,4.63
2023-05-02T09:16:14.238Z,4.70
2023-05-02T09:18:46.743Z,4.93
2023-05-02T09:21:20.643Z,5.43
2023-05-02T09:23:54.109Z,6.20
2023-05-02T09:26:28.375Z,5.90
2023-05-02T09:28:59.331Z,6.17
2023-05-02T09:34:12.355Z,8.23
2023-05-02T09:36:43.295Z,7.20
2023-05-02T09:39:15.459Z,7.47
2023-05-02T09:41:46.883Z,9.33
2023-05-02T09:44:18.534Z,9.83
2023-05-02T09:46:51.197Z,9.23
2023-05-02T09:49:21.057Z,8.77
2023-05-02T09:51:50.710Z,9.03
2023-05-02T09:57:13.304Z,7.93
2023-05-02T09:59:42.541Z,7.80
2023-05-02T10:02:13.570Z,8.20
2023-05-02T10:04:43.596Z,8.53
2023-05-02T10:07:14.392Z,8.00
2023-05-02T10:09:46.110Z,8.37
2023-05-02T10:12:18.847Z,8.13
2023-05-02T10:14:55.255Z,7.33
2023-05-02T10:17:32.340Z,8.20
2023-05-02T10:20:06.531Z,8.00
2023-05-02T10:22:36.936Z,8.43
2023-05-02T10:25:06.677Z,8.27
2023-05-02T10:27:37.881Z,8.10
2023-05-02T10:30:09.580Z,8.27
2023-05-02T10:32:39.958Z,8.37
2023-05-02T10:35:09.523Z,8.33
2023-05-02T10:37:42.016Z,7.83
2023-05-02T10:40:13.692Z,8.77
2023-05-02T10:42:47.587Z,8.37
2023-05-02T10:45:33.568Z,8.77
2023-05-02T10:48:17.324Z,8.87
2023-05-02T10:50:48.509Z,9.27
2023-05-02T10:53:32.485Z,8.60
2023-05-02T10:56:22.369Z,8.87
2023-05-02T10:58:54.624Z,9.83
2023-05-02T11:01:40.148Z,9.60
2023-05-02T11:04:11.548Z,9.80
2023-05-02T11:07:19.271Z,9.27
2023-05-02T11:09:48.014Z,10.40
2023-05-02T11:12:48.594Z,9.03
2023-05-02T11:16:00.337Z,8.90
2023-05-02T11:18:49.021Z,9.60
2023-05-02T11:21:29.834Z,9.30
2023-05-02T11:24:40.087Z,9.47
2023-05-02T11:27:39.949Z,9.27
2023-05-02T11:30:10.248Z,9.33
2023-05-02T11:33:20.282Z,9.47
2023-05-02T11:35:50.912Z,9.50
2023-05-02T11:38:24.043Z,9.20
2023-05-02T11:41:01.041Z,9.67
2023-05-02T11:43:32.222Z,8.37
2023-05-02T11:46:03.058Z,8.50
2023-05-02T11:48:33.603Z,7.73
2023-05-02T11:51:07.309Z,8.15
2023-05-02T11:53:42.658Z,8.90
2023-05-02T11:56:11.500Z,8.60
2023-05-02T11:58:40.174Z,7.93
2023-05-02T12:01:16.407Z,8.80
2023-05-02T12:03:48.612Z,8.80
2023-05-02T12:06:20.351Z,8.20
2023-05-02T12:08:49.753Z,9.27
2023-05-02T12:11:18.875Z,8.47
2023-05-02T12:13:50.111Z,7.50
2023-05-02T12:16:20.480Z,7.53
2023-05-02T12:18:50.905Z,7.70
2023-05-02T12:21:20.812Z,7.78
2023-05-02T12:23:49.845Z,7.70
2023-05-02T12:26:19.887Z,8.00
2023-05-02T12:28:54.696Z,7.67
2023-05-02T12:31:24.225Z,7.50
2023-05-02T12:33:57.688Z,7.70
2023-05-02T12:36:28.576Z,7.67
2023-05-02T12:39:00.442Z,8.27
2023-05-02T12:41:38.255Z,7.28
2023-05-02T12:44:08.219Z,7.40
2023-05-02T12:46:37.163Z,8.47
2023-05-02T12:49:09.648Z,8.53
2023-05-02T12:51:39.826Z,9.23
2023-05-02T12:54:08.701Z,8.90
2023-05-02T12:56:46.673Z,8.60
2023-05-02T12:59:30.008Z,9.00
2023-05-02T13:01:59.572Z,8.83
2023-05-02T13:04:38.889Z,9.23
2023-05-02T13:07:07.757Z,8.90
2023-05-02T13:09:36.865Z,8.05
2023-05-02T13:12:06.207Z,8.70
2023-05-02T13:14:35.075Z,9.00
2023-05-02T13:17:04.132Z,10.35
2023-05-02T13:19:32.985Z,9.07
2023-05-02T13:22:03.032Z,8.43
2023-05-02T13:24:31.919Z,8.65
2023-05-02T13:27:00.570Z,8.63
2023-05-02T13:29:29.369Z,7.97
2023-05-02T13:31:58.251Z,7.90
2023-05-02T13:34:28.491Z,8.33
2023-05-02T13:36:57.433Z,8.57
2023-05-02T13:39:27.926Z,7.30
2023-05-02T13:41:56.918Z,7.35
2023-05-02T13:44:25.813Z,7.45
2023-05-02T13:46:54.469Z,7.32
2023-05-02T13:49:24.024Z,7.43
2023-05-02T13:51:53.227Z,7.75
2023-05-02T13:54:22.052Z,7.70
2023-05-02T13:56:52.081Z,8.40
2023-05-02T13:59:20.777Z,8.37
2023-05-02T14:01:49.632Z,8.90
2023-05-02T14:04:18.614Z,8.40
2023-05-02T14:06:47.436Z,8.25
2023-05-02T14:09:17.121Z,8.50
2023-05-02T14:11:47.305Z,8.30
2023-05-02T14:14:17.584Z,7.90
2023-05-02T14:16:48.232Z,8.55
2023-05-02T14:19:19.423Z,9.30
2023-05-02T14:21:48.212Z,8.25
2023-05-02T14:24:18.610Z,8.48
2023-05-02T14:26:47.650Z,8.30
2023-05-02T14:29:18.578Z,8.60
2023-05-02T14:31:47.407Z,7.88
2023-05-02T14:34:16.220Z,8.52
2023-05-02T14:36:44.860Z,8.57
2023-05-02T14:39:13.534Z,7.95
2023-05-02T14:41:42.242Z,8.48
2023-05-02T14:44:10.913Z,9.25
2023-05-02T14:46:41.201Z,9.73
2023-05-02T14:49:09.894Z,7.60
2023-05-02T14:51:39.994Z,6.97
2023-05-02T14:54:08.781Z,7.22
2023-05-02T14:56:37.612Z,6.50
2023-05-02T14:59:06.309Z,6.75
2023-05-02T15:01:35.155Z,6.97
2023-05-02T15:04:07.764Z,7.40
2023-05-02T15:06:37.524Z,6.90
2023-05-02T15:09:06.427Z,7.90
2023-05-02T15:11:35.248Z,8.00
2023-05-02T15:14:03.942Z,7.90
2023-05-02T15:16:32.842Z,7.67
2023-05-02T15:19:01.494Z,7.50
2023-05-02T15:21:32.102Z,7.63
2023-05-02T15:24:00.766Z,6.90
2023-05-02T15:26:29.802Z,5.97
2023-05-02T15:28:58.449Z,5.33
2023-05-02T15:31:27.993Z,13.07
2023-05-02T15:33:56.899Z,6.00
2023-05-02T15:36:29.158Z,6.40
2023-05-02T15:38:59.675Z,5.70
2023-05-02T15:41:28.309Z,6.77
2023-05-02T15:43:58.673Z,5.90
2023-05-02T15:46:28.655Z,6.50
2023-05-02T15:48:58.436Z,5.87
2023-05-02T15:51:27.536Z,5.90
2023-05-02T15:53:58.514Z,5.73
2023-05-02T15:56:27.473Z,5.07
2023-05-02T15:58:56.691Z,5.17
2023-05-02T16:01:25.875Z,4.47
2023-05-02T16:03:54.700Z,5.10
2023-05-02T16:06:23.879Z,5.33
2023-05-02T16:08:52.782Z,4.90
2023-05-02T16:11:23.167Z,5.00
2023-05-02T16:13:52.444Z,4.80
2023-05-02T16:16:21.387Z,4.80
2023-05-02T16:18:50.402Z,5.00
2023-05-02T16:21:19.127Z,5.40
2023-05-02T16:23:48.006Z,5.60
2023-05-02T16:26:16.630Z,4.60
2023-05-02T16:28:47.118Z,5.40
2023-05-02T16:31:16.127Z,5.20
2023-05-02T16:33:45.057Z,5.17
2023-05-02T16:36:14.888Z,4.03
2023-05-02T16:38:43.983Z,4.37
2023-05-02T16:41:13.300Z,5.20
2023-05-02T16:43:42.625Z,4.63
2023-05-02T16:46:13.127Z,4.77
2023-05-02T16:48:44.053Z,4.30
2023-05-02T16:51:16.899Z,4.40
2023-05-02T16:53:46.786Z,4.47
2023-05-02T16:56:16.292Z,4.30
2023-05-02T16:58:45.149Z,4.37
2023-05-02T17:01:17.561Z,4.20
2023-05-02T17:03:46.888Z,5.53
2023-05-02T17:06:18.040Z,4.80
2023-05-02T17:08:49.874Z,4.60
2023-05-02T17:11:18.897Z,5.07
2023-05-02T17:13:49.781Z,4.80
2023-05-02T17:16:20.798Z,4.83
2023-05-02T17:18:49.830Z,4.90
2023-05-02T17:21:18.667Z,4.50
2023-05-02T17:23:47.475Z,4.50
2023-05-02T17:26:16.640Z,4.43
2023-05-02T17:28:46.061Z,3.97
2023-05-02T17:31:15.548Z,3.90
2023-05-02T17:33:46.581Z,4.00
2023-05-02T17:36:15.501Z,3.83
2023-05-02T17:38:45.151Z,3.63
2023-05-02T17:41:15.044Z,3.77
2023-05-02T17:43:44.096Z,4.10
2023-05-02T17:46:13.589Z,4.20
2023-05-02T17:48:46.493Z,4.43
2023-05-02T17:51:15.344Z,4.23
2023-05-02T17:53:43.985Z,4.43
2023-05-02T17:56:12.969Z,3.50
2023-05-02T17:58:41.876Z,3.63
2023-05-02T18:01:12.168Z,3.70
2023-05-02T18:03:41.383Z,3.67
2023-05-02T18:06:17.569Z,3.40
2023-05-02T18:08:46.783Z,3.50
2023-05-02T18:11:17.222Z,3.50
2023-05-02T18:13:46.977Z,3.50
2023-05-02T18:16:15.782Z,3.23
2023-05-02T18:18:44.597Z,3.27
2023-05-02T18:21:23.686Z,3.17
2023-05-02T18:23:52.956Z,3.23
2023-05-02T18:26:21.635Z,3.47
2023-05-02T18:28:53.489Z,3.23
2023-05-02T18:31:23.931Z,3.90
2023-05-02T18:33:55.119Z,4.80
2023-05-02T18:36:30.397Z,5.90
2023-05-02T18:39:00.357Z,5.57
2023-05-02T18:41:29.073Z,4.07
2023-05-02T18:43:59.364Z,4.20
2023-05-02T18:46:29.611Z,3.20
2023-05-02T18:48:58.536Z,3.80
2023-05-02T18:51:29.280Z,3.57
2023-05-02T18:53:58.035Z,3.80
2023-05-02T18:56:27.132Z,3.50
2023-05-02T18:58:56.684Z,3.33
2023-05-02T19:01:26.244Z,3.50
2023-05-02T19:03:55.249Z,3.17
2023-05-02T19:06:24.518Z,3.27
2023-05-02T19:08:55.416Z,2.90
2023-05-02T19:11:24.644Z,2.83
2023-05-02T19:13:53.554Z,2.57
2023-05-02T19:16:25.659Z,2.47
2023-05-02T19:18:56.057Z,2.57
2023-05-02T19:21:25.164Z,2.77
2023-05-02T19:23:56.676Z,2.50
2023-05-02T19:26:25.922Z,3.10
2023-05-02T19:28:54.977Z,2.87
2023-05-02T19:31:24.163Z,2.67
2023-05-02T19:33:53.042Z,2.50
2023-05-02T19:36:23.098Z,2.80
2023-05-02T19:38:57.927Z,2.73
2023-05-02T19:41:27.042Z,2.70
2023-05-02T19:43:58.856Z,2.93
2023-05-02T19:46:28.120Z,2.80
2023-05-02T19:48:56.948Z,2.67
2023-05-02T19:51:28.124Z,2.57
2023-05-02T19:53:59.080Z,2.63
2023-05-02T19:56:28.896Z,2.60
2023-05-02T19:58:58.710Z,2.50
2023-05-02T20:01:29.275Z,2.50
2023-05-02T20:03:57.973Z,3.20
2023-05-02T20:06:28.567Z,3.00
2023-05-02T20:08:59.004Z,2.20
2023-05-02T20:11:32.808Z,2.50
2023-05-02T20:14:01.613Z,2.60
2023-05-02T20:16:34.114Z,2.63
2023-05-02T20:19:02.859Z,3.30
2023-05-02T20:21:31.499Z,2.90
2023-05-02T20:24:01.665Z,3.10
2023-05-02T20:26:31.367Z,2.97
2023-05-02T20:29:00.135Z,2.80
2023-05-02T20:31:28.931Z,2.70
2023-05-02T20:33:57.664Z,2.67
2023-05-02T20:36:27.785Z,2.80
2023-05-02T20:38:57.936Z,3.10
2023-05-02T20:41:28.101Z,2.40
2023-05-02T20:43:57.186Z,2.90
2023-05-02T20:46:25.989Z,3.00
2023-05-02T20:48:54.758Z,3.20
2023-05-02T20:51:23.503Z,3.13
2023-05-02T20:53:52.208Z,3.40
2023-05-02T20:56:21.082Z,2.97
2023-05-02T20:58:51.183Z,2.80
2023-05-02T21:01:19.961Z,3.00
2023-05-02T21:03:49.380Z,2.80
2023-05-02T21:06:20.949Z,2.90
2023-05-02T21:08:49.730Z,2.83
2023-05-02T21:11:18.382Z,2.87
2023-05-02T21:13:47.172Z,3.10
2023-05-02T21:16:19.112Z,2.70
2023-05-02T21:18:48.671Z,3.00
2023-05-02T21:21:17.444Z,2.83
2023-05-02T21:23:46.170Z,2.70
2023-05-02T21:26:14.921Z,2.93
2023-05-02T21:28:43.698Z,2.93
2023-05-02T21:31:12.702Z,2.97
2023-05-02T21:33:42.858Z,3.10
2023-05-02T21:36:12.192Z,2.80
2023-05-02T21:38:40.859Z,2.60
2023-05-02T21:41:10.200Z,2.80
2023-05-02T21:43:41.636Z,2.83
2023-05-02T21:46:12.845Z,2.70
2023-05-02T21:48:43.023Z,2.87
2023-05-02T21:51:14.234Z,2.80
2023-05-02T21:53:43.404Z,2.70
2023-05-02T21:56:12.530Z,3.10
2023-05-02T21:58:41.137Z,3.00
2023-05-02T22:01:10.461Z,2.83
2023-05-02T22:03:39.279Z,3.23
2023-05-02T22:06:09.773Z,3.10
2023-05-02T22:08:38.533Z,3.00
2023-05-02T22:11:09.264Z,3.00
2023-05-02T22:13:38.265Z,3.03
2023-05-02T22:16:08.170Z,2.70
2023-05-02T22:18:37.054Z,3.03
2023-05-02T22:21:08.321Z,3.33
2023-05-02T22:23:38.408Z,3.07
2023-05-02T22:26:07.229Z,3.03
2023-05-02T22:28:45.749Z,2.90
2023-05-02T22:31:15.376Z,3.30
2023-05-02T22:33:49.623Z,3.20
2023-05-02T22:36:18.741Z,3.40
2023-05-02T22:38:48.944Z,3.53
2023-05-02T22:41:17.665Z,3.30
2023-05-02T22:43:46.564Z,3.10
2023-05-02T22:46:15.220Z,3.40
2023-05-02T22:48:43.945Z,3.43
2023-05-02T22:51:12.700Z,3.57
2023-05-02T22:53:41.382Z,3.50
2023-05-02T22:56:11.468Z,3.37
2023-05-02T22:58:40.218Z,3.60
2023-05-02T23:01:09.176Z,3.27
2023-05-02T23:03:38.110Z,3.77
2023-05-02T23:06:07.182Z,3.33
2023-05-02T23:08:35.931Z,3.87
2023-05-02T23:11:04.695Z,3.90
2023-05-02T23:13:34.798Z,4.03
2023-05-02T23:16:04.443Z,4.07
2023-05-02T23:18:33.265Z,3.87
2023-05-02T23:21:01.897Z,3.93
2023-05-02T23:23:30.543Z,3.70
2023-05-02T23:26:00.347Z,4.20
2023-05-02T23:28:29.051Z,4.00
2023-05-02T23:30:59.562Z,3.93
2023-05-02T23:33:28.459Z,3.90
2023-05-02T23:35:57.955Z,4.20
2023-05-02T23:38:27.240Z,3.77
2023-05-02T23:40:56.669Z,4.43
2023-05-02T23:43:25.894Z,4.53
2023-05-02T23:45:54.695Z,4.57
2023-05-02T23:48:24.832Z,4.97
2023-05-02T23:50:54.201Z,5.20
2023-05-02T23:53:22.888Z,4.97
2023-05-02T23:55:52.163Z,5.40
2023-05-02T23:58:20.837Z,4.90
